sensor_id;sensor_type;location;lat;lon;timestamp;pressure;altitude;pressure_sealevel;temperature;humidity
25944;BME280;13742;49.306;8.636;2023-05-16T00:00:58;100207.78;;;14.02;92.44
25944;BME280;13742;49.306;8.636;2023-05-16T00:01:58;100205.27;;;13.98;91.17
25944;BME280;13742;49.306;8.636;2023-05-16T00:02:58;100209.36;;;14.03;91.07
25944;BME280;13742;49.306;8.636;2023-05-16T00:03:58;100207.98;;;13.98;92.62
25944;BME280;13742;49.306;8.636;2023-05-16T00:04:58;100207.60;;;13.93;90.66
25944;BME280;13742;49.306;8.636;2023-05-16T00:05:58;100209.15;;;13.91;90.66
25944;BME280;13742;49.306;8.636;2023-05-16T00:06:58;100211.93;;;13.93;89.84
25944;BME280;13742;49.306;8.636;2023-05-16T00:07:58;100207.75;;;13.90;88.79
25944;BME280;13742;49.306;8.636;2023-05-16T00:08:58;100212.93;;;13.88;88.76
25944;BME280;13742;49.306;8.636;2023-05-16T00:09:58;100213.73;;;13.90;88.04
25944;BME280;13742;49.306;8.636;2023-05-16T00:10:58;100211.79;;;13.90;88.25
25944;BME280;13742;49.306;8.636;2023-05-16T00:11:58;100212.38;;;13.88;87.99
25944;BME280;13742;49.306;8.636;2023-05-16T00:13:00;100209.11;;;13.87;87.53
25944;BME280;13742;49.306;8.636;2023-05-16T00:13:58;100210.84;;;13.89;88.31
25944;BME280;13742;49.306;8.636;2023-05-16T00:14:58;100209.78;;;13.88;87.49
25944;BME280;13742;49.306;8.636;2023-05-16T00:16:01;100209.81;;;13.86;87.65
25944;BME280;13742;49.306;8.636;2023-05-16T00:16:58;100210.17;;;13.90;87.89
25944;BME280;13742;49.306;8.636;2023-05-16T00:17:58;100206.71;;;13.92;88.10
25944;BME280;13742;49.306;8.636;2023-05-16T00:18:59;100210.63;;;13.90;87.98
25944;BME280;13742;49.306;8.636;2023-05-16T00:19:59;100206.00;;;13.93;89.58
25944;BME280;13742;49.306;8.636;2023-05-16T00:20:58;100208.98;;;13.92;89.06
25944;BME280;13742;49.306;8.636;2023-05-16T00:21:58;100207.66;;;13.87;88.40
25944;BME280;13742;49.306;8.636;2023-05-16T00:23:00;100208.34;;;13.88;89.14
25944;BME280;13742;49.306;8.636;2023-05-16T00:23:58;100206.32;;;13.85;89.25
25944;BME280;13742;49.306;8.636;2023-05-16T00:24:58;100205.98;;;13.88;89.93
25944;BME280;13742;49.306;8.636;2023-05-16T00:25:58;100204.41;;;13.88;90.45
25944;BME280;13742;49.306;8.636;2023-05-16T00:26:58;100204.03;;;13.90;90.33
25944;BME280;13742;49.306;8.636;2023-05-16T00:27:58;100204.47;;;13.88;89.24
25944;BME280;13742;49.306;8.636;2023-05-16T00:28:58;100205.42;;;13.89;89.84
25944;BME280;13742;49.306;8.636;2023-05-16T00:29:58;100205.51;;;13.87;90.05
25944;BME280;13742;49.306;8.636;2023-05-16T00:30:58;100203.13;;;13.86;90.12
25944;BME280;13742;49.306;8.636;2023-05-16T00:31:58;100200.47;;;13.79;89.72
25944;BME280;13742;49.306;8.636;2023-05-16T00:32:58;100206.80;;;13.71;88.66
25944;BME280;13742;49.306;8.636;2023-05-16T00:33:58;100199.31;;;13.73;88.31
25944;BME280;13742;49.306;8.636;2023-05-16T00:34:58;100198.21;;;13.73;89.10
25944;BME280;13742;49.306;8.636;2023-05-16T00:35:58;100198.09;;;13.72;89.08
25944;BME280;13742;49.306;8.636;2023-05-16T00:36:58;100195.06;;;13.70;89.57
25944;BME280;13742;49.306;8.636;2023-05-16T00:37:58;100198.81;;;13.72;89.24
25944;BME280;13742;49.306;8.636;2023-05-16T00:38:58;100197.42;;;13.67;88.24
25944;BME280;13742;49.306;8.636;2023-05-16T00:39:58;100194.00;;;13.68;89.09
25944;BME280;13742;49.306;8.636;2023-05-16T00:40:58;100194.78;;;13.67;89.17
25944;BME280;13742;49.306;8.636;2023-05-16T00:41:58;100195.38;;;13.71;89.56
25944;BME280;13742;49.306;8.636;2023-05-16T00:42:58;100197.43;;;13.73;89.73
25944;BME280;13742;49.306;8.636;2023-05-16T00:43:58;100200.85;;;13.67;89.98
25944;BME280;13742;49.306;8.636;2023-05-16T00:44:58;100202.32;;;13.64;89.39
25944;BME280;13742;49.306;8.636;2023-05-16T00:45:59;100207.63;;;13.64;89.38
25944;BME280;13742;49.306;8.636;2023-05-16T00:46:59;100203.72;;;13.64;89.00
25944;BME280;13742;49.306;8.636;2023-05-16T00:47:58;100203.79;;;13.66;89.25
25944;BME280;13742;49.306;8.636;2023-05-16T00:48:58;100208.09;;;13.65;89.38
25944;BME280;13742;49.306;8.636;2023-05-16T00:49:58;100204.89;;;13.67;89.32
25944;BME280;13742;49.306;8.636;2023-05-16T00:50:58;100205.28;;;13.65;89.89
25944;BME280;13742;49.306;8.636;2023-05-16T00:51:58;100204.33;;;13.64;90.20
25944;BME280;13742;49.306;8.636;2023-05-16T00:52:58;100204.47;;;13.63;90.47
25944;BME280;13742;49.306;8.636;2023-05-16T00:53:58;100208.03;;;13.60;90.75
25944;BME280;13742;49.306;8.636;2023-05-16T00:54:58;100208.91;;;13.58;90.83
25944;BME280;13742;49.306;8.636;2023-05-16T00:55:58;100204.63;;;13.57;90.13
25944;BME280;13742;49.306;8.636;2023-05-16T00:56:58;100206.52;;;13.64;90.77
25944;BME280;13742;49.306;8.636;2023-05-16T00:57:58;100208.89;;;13.62;90.56
25944;BME280;13742;49.306;8.636;2023-05-16T00:58:58;100204.84;;;13.59;90.82
25944;BME280;13742;49.306;8.636;2023-05-16T00:59:58;100210.70;;;13.60;90.83
25944;BME280;13742;49.306;8.636;2023-05-16T01:00:58;100207.64;;;13.60;90.62
25944;BME280;13742;49.306;8.636;2023-05-16T01:01:58;100208.91;;;13.62;90.91
25944;BME280;13742;49.306;8.636;2023-05-16T01:02:58;100204.67;;;13.61;91.14
25944;BME280;13742;49.306;8.636;2023-05-16T01:03:59;100209.73;;;13.63;90.62
25944;BME280;13742;49.306;8.636;2023-05-16T01:04:58;100209.34;;;13.62;91.03
25944;BME280;13742;49.306;8.636;2023-05-16T01:05:58;100208.27;;;13.65;91.00
25944;BME280;13742;49.306;8.636;2023-05-16T01:06:58;100206.80;;;13.64;90.82
25944;BME280;13742;49.306;8.636;2023-05-16T01:07:58;100205.72;;;13.60;91.44
25944;BME280;13742;49.306;8.636;2023-05-16T01:08:58;100207.35;;;13.62;91.37
25944;BME280;13742;49.306;8.636;2023-05-16T01:09:58;100206.92;;;13.58;91.16
25944;BME280;13742;49.306;8.636;2023-05-16T01:12:03;100204.71;;;13.57;92.02
25944;BME280;13742;49.306;8.636;2023-05-16T01:15:04;100206.25;;;13.57;91.72
25944;BME280;13742;49.306;8.636;2023-05-16T01:16:03;100207.53;;;13.59;91.74
25944;BME280;13742;49.306;8.636;2023-05-16T01:21:00;100206.72;;;13.65;91.16
25944;BME280;13742;49.306;8.636;2023-05-16T01:22:02;100208.78;;;13.63;91.94
25944;BME280;13742;49.306;8.636;2023-05-16T01:23:03;100210.16;;;13.61;91.49
25944;BME280;13742;49.306;8.636;2023-05-16T01:26:58;100212.99;;;13.62;90.75
25944;BME280;13742;49.306;8.636;2023-05-16T01:27:58;100211.45;;;13.59;91.66
25944;BME280;13742;49.306;8.636;2023-05-16T01:28:58;100211.04;;;13.60;91.48
25944;BME280;13742;49.306;8.636;2023-05-16T01:29:58;100210.18;;;13.65;91.17
25944;BME280;13742;49.306;8.636;2023-05-16T01:30:58;100212.95;;;13.58;91.25
25944;BME280;13742;49.306;8.636;2023-05-16T01:31:58;100211.61;;;13.56;91.43
25944;BME280;13742;49.306;8.636;2023-05-16T01:32:58;100210.52;;;13.59;91.89
25944;BME280;13742;49.306;8.636;2023-05-16T01:33:58;100206.59;;;13.53;91.33
25944;BME280;13742;49.306;8.636;2023-05-16T01:34:57;100205.39;;;13.55;91.85
25944;BME280;13742;49.306;8.636;2023-05-16T01:38:01;100208.34;;;13.51;92.03
25944;BME280;13742;49.306;8.636;2023-05-16T01:40:58;100206.72;;;13.54;92.42
25944;BME280;13742;49.306;8.636;2023-05-16T01:42:58;100209.45;;;13.52;91.76
25944;BME280;13742;49.306;8.636;2023-05-16T01:43:58;100206.81;;;13.47;91.51
25944;BME280;13742;49.306;8.636;2023-05-16T01:45:59;100210.09;;;13.49;91.91
25944;BME280;13742;49.306;8.636;2023-05-16T01:46:58;100212.08;;;13.48;92.12
25944;BME280;13742;49.306;8.636;2023-05-16T01:48:00;100208.73;;;13.51;91.80
25944;BME280;13742;49.306;8.636;2023-05-16T01:49:02;100211.16;;;13.45;92.28
25944;BME280;13742;49.306;8.636;2023-05-16T01:50:06;100210.84;;;13.46;92.16
25944;BME280;13742;49.306;8.636;2023-05-16T01:50:58;100209.82;;;13.45;92.16
25944;BME280;13742;49.306;8.636;2023-05-16T01:52:03;100209.90;;;13.46;92.08
25944;BME280;13742;49.306;8.636;2023-05-16T01:52:59;100212.41;;;13.43;92.28
25944;BME280;13742;49.306;8.636;2023-05-16T01:53:59;100212.06;;;13.47;92.29
25944;BME280;13742;49.306;8.636;2023-05-16T01:54:58;100211.97;;;13.43;92.06
25944;BME280;13742;49.306;8.636;2023-05-16T01:55:58;100217.33;;;13.48;91.75
25944;BME280;13742;49.306;8.636;2023-05-16T01:56:58;100217.94;;;13.48;92.30
25944;BME280;13742;49.306;8.636;2023-05-16T01:57:58;100216.55;;;13.52;91.79
25944;BME280;13742;49.306;8.636;2023-05-16T01:58:58;100214.59;;;13.56;92.21
25944;BME280;13742;49.306;8.636;2023-05-16T01:59:58;100215.17;;;13.49;91.73
25944;BME280;13742;49.306;8.636;2023-05-16T02:01:01;100217.68;;;13.50;91.77
25944;BME280;13742;49.306;8.636;2023-05-16T02:01:58;100218.95;;;13.45;91.47
25944;BME280;13742;49.306;8.636;2023-05-16T02:02:57;100223.09;;;13.50;91.59
25944;BME280;13742;49.306;8.636;2023-05-16T02:03:57;100220.16;;;13.55;91.58
25944;BME280;13742;49.306;8.636;2023-05-16T02:04:57;100219.45;;;13.57;91.54
25944;BME280;13742;49.306;8.636;2023-05-16T02:05:58;100219.59;;;13.59;91.17
25944;BME280;13742;49.306;8.636;2023-05-16T02:06:59;100220.00;;;13.62;90.67
25944;BME280;13742;49.306;8.636;2023-05-16T02:07:58;100224.39;;;13.64;90.73
25944;BME280;13742;49.306;8.636;2023-05-16T02:08:57;100224.45;;;13.69;91.50
25944;BME280;13742;49.306;8.636;2023-05-16T02:09:58;100227.19;;;13.66;90.86
25944;BME280;13742;49.306;8.636;2023-05-16T02:10:57;100225.86;;;13.55;91.09
25944;BME280;13742;49.306;8.636;2023-05-16T02:11:59;100230.03;;;13.56;90.84
25944;BME280;13742;49.306;8.636;2023-05-16T02:12:57;100225.35;;;13.60;91.26
25944;BME280;13742;49.306;8.636;2023-05-16T02:13:58;100226.20;;;13.57;90.86
25944;BME280;13742;49.306;8.636;2023-05-16T02:14:57;100226.52;;;13.60;91.33
25944;BME280;13742;49.306;8.636;2023-05-16T02:15:57;100225.00;;;13.59;90.78
25944;BME280;13742;49.306;8.636;2023-05-16T02:16:57;100226.88;;;13.52;90.18
25944;BME280;13742;49.306;8.636;2023-05-16T02:17:57;100227.97;;;13.55;90.68
25944;BME280;13742;49.306;8.636;2023-05-16T02:18:58;100226.86;;;13.50;91.51
25944;BME280;13742;49.306;8.636;2023-05-16T02:19:58;100222.36;;;13.47;91.32
25944;BME280;13742;49.306;8.636;2023-05-16T02:20:57;100227.32;;;13.46;91.70
25944;BME280;13742;49.306;8.636;2023-05-16T02:21:58;100223.06;;;13.52;91.73
25944;BME280;13742;49.306;8.636;2023-05-16T02:22:58;100225.88;;;13.52;91.70
25944;BME280;13742;49.306;8.636;2023-05-16T02:23:58;100226.63;;;13.44;91.52
25944;BME280;13742;49.306;8.636;2023-05-16T02:24:58;100227.56;;;13.48;91.60
25944;BME280;13742;49.306;8.636;2023-05-16T02:25:57;100226.17;;;13.48;91.81
25944;BME280;13742;49.306;8.636;2023-05-16T02:26:57;100225.27;;;13.42;91.58
25944;BME280;13742;49.306;8.636;2023-05-16T02:27:57;100227.59;;;13.42;92.33
25944;BME280;13742;49.306;8.636;2023-05-16T02:28:57;100227.23;;;13.45;92.13
25944;BME280;13742;49.306;8.636;2023-05-16T02:29:57;100226.86;;;13.50;92.34
25944;BME280;13742;49.306;8.636;2023-05-16T02:30:58;100230.31;;;13.47;92.07
25944;BME280;13742;49.306;8.636;2023-05-16T02:31:57;100226.52;;;13.49;92.21
25944;BME280;13742;49.306;8.636;2023-05-16T02:32:57;100229.03;;;13.46;91.63
25944;BME280;13742;49.306;8.636;2023-05-16T02:33:58;100227.27;;;13.43;91.59
25944;BME280;13742;49.306;8.636;2023-05-16T02:34:57;100228.81;;;13.46;91.53
25944;BME280;13742;49.306;8.636;2023-05-16T02:35:57;100226.02;;;13.50;91.33
25944;BME280;13742;49.306;8.636;2023-05-16T02:36:57;100226.99;;;13.52;91.42
25944;BME280;13742;49.306;8.636;2023-05-16T02:37:58;100227.41;;;13.50;91.70
25944;BME280;13742;49.306;8.636;2023-05-16T02:38:57;100226.81;;;13.51;91.72
25944;BME280;13742;49.306;8.636;2023-05-16T02:39:57;100228.17;;;13.43;92.15
25944;BME280;13742;49.306;8.636;2023-05-16T02:40:57;100231.73;;;13.36;92.43
25944;BME280;13742;49.306;8.636;2023-05-16T02:41:57;100229.83;;;13.33;92.32
25944;BME280;13742;49.306;8.636;2023-05-16T02:42:57;100234.70;;;13.39;92.39
25944;BME280;13742;49.306;8.636;2023-05-16T02:43:57;100234.67;;;13.36;92.89
25944;BME280;13742;49.306;8.636;2023-05-16T02:44:57;100234.30;;;13.32;92.91
25944;BME280;13742;49.306;8.636;2023-05-16T02:45:57;100235.80;;;13.31;92.71
25944;BME280;13742;49.306;8.636;2023-05-16T02:46:58;100237.97;;;13.35;93.19
25944;BME280;13742;49.306;8.636;2023-05-16T02:47:57;100232.10;;;13.23;93.12
25944;BME280;13742;49.306;8.636;2023-05-16T02:48:58;100236.02;;;13.28;93.91
25944;BME280;13742;49.306;8.636;2023-05-16T02:49:57;100233.14;;;13.28;93.70
25944;BME280;13742;49.306;8.636;2023-05-16T02:50:57;100234.20;;;13.29;93.96
25944;BME280;13742;49.306;8.636;2023-05-16T02:51:57;100231.52;;;13.31;94.21
25944;BME280;13742;49.306;8.636;2023-05-16T02:52:58;100231.27;;;13.33;94.63
25944;BME280;13742;49.306;8.636;2023-05-16T02:53:59;100228.83;;;13.28;94.33
25944;BME280;13742;49.306;8.636;2023-05-16T02:54:57;100230.38;;;13.28;94.17
25944;BME280;13742;49.306;8.636;2023-05-16T02:55:57;100229.77;;;13.32;94.84
25944;BME280;13742;49.306;8.636;2023-05-16T02:56:57;100227.88;;;13.26;94.78
25944;BME280;13742;49.306;8.636;2023-05-16T02:57:58;100225.38;;;13.30;94.59
25944;BME280;13742;49.306;8.636;2023-05-16T02:58:59;100227.06;;;13.28;94.89
25944;BME280;13742;49.306;8.636;2023-05-16T02:59:58;100224.73;;;13.27;94.74
25944;BME280;13742;49.306;8.636;2023-05-16T03:00:57;100226.00;;;13.27;94.71
25944;BME280;13742;49.306;8.636;2023-05-16T03:01:58;100228.90;;;13.29;94.34
25944;BME280;13742;49.306;8.636;2023-05-16T03:02:57;100227.80;;;13.29;94.76
25944;BME280;13742;49.306;8.636;2023-05-16T03:03:57;100227.57;;;13.18;94.35
25944;BME280;13742;49.306;8.636;2023-05-16T03:04:57;100229.19;;;13.19;94.69
25944;BME280;13742;49.306;8.636;2023-05-16T03:05:57;100231.53;;;13.18;94.49
25944;BME280;13742;49.306;8.636;2023-05-16T03:06:58;100235.33;;;13.15;94.67
25944;BME280;13742;49.306;8.636;2023-05-16T03:07:57;100233.44;;;13.14;95.29
25944;BME280;13742;49.306;8.636;2023-05-16T03:08:57;100234.07;;;13.11;94.93
25944;BME280;13742;49.306;8.636;2023-05-16T03:09:57;100232.41;;;13.07;95.26
25944;BME280;13742;49.306;8.636;2023-05-16T03:10:57;100237.39;;;13.02;95.25
25944;BME280;13742;49.306;8.636;2023-05-16T03:11:58;100232.86;;;13.03;94.75
25944;BME280;13742;49.306;8.636;2023-05-16T03:12:57;100235.92;;;13.00;94.91
25944;BME280;13742;49.306;8.636;2023-05-16T03:13:59;100236.38;;;12.97;95.46
25944;BME280;13742;49.306;8.636;2023-05-16T03:14:57;100237.58;;;13.00;96.13
25944;BME280;13742;49.306;8.636;2023-05-16T03:15:57;100235.56;;;12.98;95.94
25944;BME280;13742;49.306;8.636;2023-05-16T03:16:57;100239.45;;;13.00;96.04
25944;BME280;13742;49.306;8.636;2023-05-16T03:17:57;100238.94;;;12.99;96.11
25944;BME280;13742;49.306;8.636;2023-05-16T03:18:57;100235.87;;;12.99;95.82
25944;BME280;13742;49.306;8.636;2023-05-16T03:19:57;100240.09;;;12.93;96.22
25944;BME280;13742;49.306;8.636;2023-05-16T03:20:58;100238.98;;;12.93;95.80
25944;BME280;13742;49.306;8.636;2023-05-16T03:21:57;100239.56;;;12.95;95.69
25944;BME280;13742;49.306;8.636;2023-05-16T03:22:57;100243.17;;;12.90;95.43
25944;BME280;13742;49.306;8.636;2023-05-16T03:23:57;100246.86;;;12.89;95.25
25944;BME280;13742;49.306;8.636;2023-05-16T03:24:57;100241.47;;;12.88;94.72
25944;BME280;13742;49.306;8.636;2023-05-16T03:25:58;100242.27;;;12.89;94.79
25944;BME280;13742;49.306;8.636;2023-05-16T03:26:59;100246.80;;;12.86;94.76
25944;BME280;13742;49.306;8.636;2023-05-16T03:27:57;100246.97;;;12.86;94.90
25944;BME280;13742;49.306;8.636;2023-05-16T03:28:58;100246.70;;;12.85;95.12
25944;BME280;13742;49.306;8.636;2023-05-16T03:29:58;100247.27;;;12.83;94.60
25944;BME280;13742;49.306;8.636;2023-05-16T03:30:57;100246.24;;;12.81;94.54
25944;BME280;13742;49.306;8.636;2023-05-16T03:31:57;100249.60;;;12.80;94.96
25944;BME280;13742;49.306;8.636;2023-05-16T03:32:57;100251.17;;;12.82;95.29
25944;BME280;13742;49.306;8.636;2023-05-16T03:33:58;100251.04;;;12.76;94.72
25944;BME280;13742;49.306;8.636;2023-05-16T03:34:57;100249.71;;;12.80;95.11
25944;BME280;13742;49.306;8.636;2023-05-16T03:35:58;100250.18;;;12.78;94.89
25944;BME280;13742;49.306;8.636;2023-05-16T03:36:57;100251.48;;;12.76;94.72
25944;BME280;13742;49.306;8.636;2023-05-16T03:37:57;100253.30;;;12.80;95.12
25944;BME280;13742;49.306;8.636;2023-05-16T03:38:57;100251.33;;;12.77;95.39
25944;BME280;13742;49.306;8.636;2023-05-16T03:39:57;100252.36;;;12.75;95.63
25944;BME280;13742;49.306;8.636;2023-05-16T03:40:57;100259.15;;;12.75;95.25
25944;BME280;13742;49.306;8.636;2023-05-16T03:41:57;100254.88;;;12.82;95.53
25944;BME280;13742;49.306;8.636;2023-05-16T03:42:57;100254.08;;;12.80;95.10
25944;BME280;13742;49.306;8.636;2023-05-16T03:43:57;100262.81;;;12.75;94.75
25944;BME280;13742;49.306;8.636;2023-05-16T03:44:57;100257.33;;;12.67;94.79
25944;BME280;13742;49.306;8.636;2023-05-16T03:45:59;100261.30;;;12.67;95.19
25944;BME280;13742;49.306;8.636;2023-05-16T03:46:57;100263.55;;;12.70;95.08
25944;BME280;13742;49.306;8.636;2023-05-16T03:47:57;100258.88;;;12.67;94.42
25944;BME280;13742;49.306;8.636;2023-05-16T03:48:57;100266.72;;;12.67;94.19
25944;BME280;13742;49.306;8.636;2023-05-16T03:49:58;100262.86;;;12.68;94.97
25944;BME280;13742;49.306;8.636;2023-05-16T03:50:57;100267.36;;;12.66;95.13
25944;BME280;13742;49.306;8.636;2023-05-16T03:51:57;100268.86;;;12.66;94.61
25944;BME280;13742;49.306;8.636;2023-05-16T03:52:57;100268.63;;;12.65;94.75
25944;BME280;13742;49.306;8.636;2023-05-16T03:53:57;100269.64;;;12.67;95.42
25944;BME280;13742;49.306;8.636;2023-05-16T03:54:57;100270.34;;;12.69;95.29
25944;BME280;13742;49.306;8.636;2023-05-16T03:55:58;100274.36;;;12.66;94.92
25944;BME280;13742;49.306;8.636;2023-05-16T03:56:57;100275.00;;;12.63;95.05
25944;BME280;13742;49.306;8.636;2023-05-16T03:57:57;100272.17;;;12.63;94.87
25944;BME280;13742;49.306;8.636;2023-05-16T03:58:57;100280.16;;;12.65;94.90
25944;BME280;13742;49.306;8.636;2023-05-16T03:59:58;100279.57;;;12.62;94.22
25944;BME280;13742;49.306;8.636;2023-05-16T04:00:57;100281.45;;;12.62;94.67
25944;BME280;13742;49.306;8.636;2023-05-16T04:01:57;100281.98;;;12.61;94.67
25944;BME280;13742;49.306;8.636;2023-05-16T04:02:57;100282.33;;;12.59;94.48
25944;BME280;13742;49.306;8.636;2023-05-16T04:03:57;100282.95;;;12.59;94.81
25944;BME280;13742;49.306;8.636;2023-05-16T04:04:57;100284.57;;;12.64;94.51
25944;BME280;13742;49.306;8.636;2023-05-16T04:05:58;100288.27;;;12.60;94.74
25944;BME280;13742;49.306;8.636;2023-05-16T04:06:57;100285.14;;;12.59;94.03
25944;BME280;13742;49.306;8.636;2023-05-16T04:07:57;100287.91;;;12.62;94.86
25944;BME280;13742;49.306;8.636;2023-05-16T04:08:57;100287.45;;;12.57;94.63
25944;BME280;13742;49.306;8.636;2023-05-16T04:09:57;100290.13;;;12.64;94.16
25944;BME280;13742;49.306;8.636;2023-05-16T04:10:57;100285.47;;;12.59;94.11
25944;BME280;13742;49.306;8.636;2023-05-16T04:12:00;100289.11;;;12.65;94.16
25944;BME280;13742;49.306;8.636;2023-05-16T04:12:57;100293.50;;;12.63;94.50
25944;BME280;13742;49.306;8.636;2023-05-16T04:13:58;100291.19;;;12.65;94.18
25944;BME280;13742;49.306;8.636;2023-05-16T04:14:57;100293.89;;;12.67;94.19
25944;BME280;13742;49.306;8.636;2023-05-16T04:15:57;100296.04;;;12.63;93.85
25944;BME280;13742;49.306;8.636;2023-05-16T04:16:57;100296.33;;;12.65;94.18
25944;BME280;13742;49.306;8.636;2023-05-16T04:17:58;100297.56;;;12.69;94.38
25944;BME280;13742;49.306;8.636;2023-05-16T04:18:58;100297.33;;;12.68;94.16
25944;BME280;13742;49.306;8.636;2023-05-16T04:19:57;100297.69;;;12.71;93.65
25944;BME280;13742;49.306;8.636;2023-05-16T04:20:57;100299.08;;;12.67;93.33
25944;BME280;13742;49.306;8.636;2023-05-16T04:21:57;100301.50;;;12.67;93.62
25944;BME280;13742;49.306;8.636;2023-05-16T04:22:57;100302.23;;;12.67;93.93
25944;BME280;13742;49.306;8.636;2023-05-16T04:23:58;100304.64;;;12.70;93.93
25944;BME280;13742;49.306;8.636;2023-05-16T04:24:57;100307.70;;;12.68;94.22
25944;BME280;13742;49.306;8.636;2023-05-16T04:25:57;100308.05;;;12.69;93.91
25944;BME280;13742;49.306;8.636;2023-05-16T04:26:57;100304.44;;;12.71;93.89
25944;BME280;13742;49.306;8.636;2023-05-16T04:27:57;100303.38;;;12.67;94.04
25944;BME280;13742;49.306;8.636;2023-05-16T04:28:57;100309.13;;;12.67;93.54
25944;BME280;13742;49.306;8.636;2023-05-16T04:29:58;100312.35;;;12.62;93.47
25944;BME280;13742;49.306;8.636;2023-05-16T04:30:57;100311.03;;;12.65;93.66
25944;BME280;13742;49.306;8.636;2023-05-16T04:31:57;100312.41;;;12.61;93.17
25944;BME280;13742;49.306;8.636;2023-05-16T04:32:58;100316.14;;;12.64;93.43
25944;BME280;13742;49.306;8.636;2023-05-16T04:33:57;100313.06;;;12.68;94.08
25944;BME280;13742;49.306;8.636;2023-05-16T04:34:57;100314.67;;;12.65;93.56
25944;BME280;13742;49.306;8.636;2023-05-16T04:35:58;100315.57;;;12.66;93.49
25944;BME280;13742;49.306;8.636;2023-05-16T04:36:57;100309.47;;;12.64;93.58
25944;BME280;13742;49.306;8.636;2023-05-16T04:37:57;100312.86;;;12.69;93.19
25944;BME280;13742;49.306;8.636;2023-05-16T04:38:57;100312.48;;;12.66;93.24
25944;BME280;13742;49.306;8.636;2023-05-16T04:39:58;100315.97;;;12.67;93.30
25944;BME280;13742;49.306;8.636;2023-05-16T04:40:57;100317.21;;;12.61;93.06
25944;BME280;13742;49.306;8.636;2023-05-16T04:42:00;100317.28;;;12.59;92.52
25944;BME280;13742;49.306;8.636;2023-05-16T04:42:58;100316.70;;;12.50;92.46
25944;BME280;13742;49.306;8.636;2023-05-16T04:43:57;100320.47;;;12.47;93.00
25944;BME280;13742;49.306;8.636;2023-05-16T04:44:58;100319.33;;;12.48;93.32
25944;BME280;13742;49.306;8.636;2023-05-16T04:45:58;100325.08;;;12.48;93.10
25944;BME280;13742;49.306;8.636;2023-05-16T04:46:58;100325.34;;;12.48;93.34
25944;BME280;13742;49.306;8.636;2023-05-16T04:47:57;100322.95;;;12.51;93.87
25944;BME280;13742;49.306;8.636;2023-05-16T04:48:57;100323.23;;;12.50;93.52
25944;BME280;13742;49.306;8.636;2023-05-16T04:49:58;100322.12;;;12.53;93.39
25944;BME280;13742;49.306;8.636;2023-05-16T04:50:57;100325.11;;;12.51;93.40
25944;BME280;13742;49.306;8.636;2023-05-16T04:51:58;100329.44;;;12.44;93.13
25944;BME280;13742;49.306;8.636;2023-05-16T04:52:57;100332.64;;;12.42;93.24
25944;BME280;13742;49.306;8.636;2023-05-16T04:53:57;100332.91;;;12.41;93.56
25944;BME280;13742;49.306;8.636;2023-05-16T04:54:59;100336.09;;;12.44;93.70
25944;BME280;13742;49.306;8.636;2023-05-16T04:55:58;100332.67;;;12.40;93.77
25944;BME280;13742;49.306;8.636;2023-05-16T04:56:57;100339.34;;;12.36;93.62
25944;BME280;13742;49.306;8.636;2023-05-16T04:57:57;100335.71;;;12.37;93.89
25944;BME280;13742;49.306;8.636;2023-05-16T04:58:57;100334.39;;;12.34;93.82
25944;BME280;13742;49.306;8.636;2023-05-16T04:59:58;100336.61;;;12.38;93.96
25944;BME280;13742;49.306;8.636;2023-05-16T05:00:58;100333.05;;;12.40;94.78
25944;BME280;13742;49.306;8.636;2023-05-16T05:01:57;100333.59;;;12.39;94.64
25944;BME280;13742;49.306;8.636;2023-05-16T05:02:57;100342.03;;;12.39;94.33
25944;BME280;13742;49.306;8.636;2023-05-16T05:03:57;100338.95;;;12.39;94.15
25944;BME280;13742;49.306;8.636;2023-05-16T05:04:57;100338.95;;;12.39;94.55
25944;BME280;13742;49.306;8.636;2023-05-16T05:05:57;100335.17;;;12.45;94.67
25944;BME280;13742;49.306;8.636;2023-05-16T05:06:57;100341.09;;;12.46;94.54
25944;BME280;13742;49.306;8.636;2023-05-16T05:07:58;100331.25;;;12.51;94.38
25944;BME280;13742;49.306;8.636;2023-05-16T05:08:57;100336.77;;;12.48;94.38
25944;BME280;13742;49.306;8.636;2023-05-16T05:09:57;100341.00;;;12.46;94.25
25944;BME280;13742;49.306;8.636;2023-05-16T05:10:58;100342.77;;;12.40;93.94
25944;BME280;13742;49.306;8.636;2023-05-16T05:11:57;100339.09;;;12.41;94.19
25944;BME280;13742;49.306;8.636;2023-05-16T05:12:57;100341.70;;;12.39;94.18
25944;BME280;13742;49.306;8.636;2023-05-16T05:13:57;100336.40;;;12.42;93.98
25944;BME280;13742;49.306;8.636;2023-05-16T05:14:57;100339.23;;;12.43;94.24
25944;BME280;13742;49.306;8.636;2023-05-16T05:15:57;100336.84;;;12.46;94.46
25944;BME280;13742;49.306;8.636;2023-05-16T05:16:57;100340.64;;;12.45;94.62
25944;BME280;13742;49.306;8.636;2023-05-16T05:17:57;100338.90;;;12.43;94.00
25944;BME280;13742;49.306;8.636;2023-05-16T05:18:57;100340.72;;;12.36;93.88
25944;BME280;13742;49.306;8.636;2023-05-16T05:19:57;100342.70;;;12.39;94.11
25944;BME280;13742;49.306;8.636;2023-05-16T05:20:58;100342.60;;;12.40;94.86
25944;BME280;13742;49.306;8.636;2023-05-16T05:21:58;100347.92;;;12.41;94.46
25944;BME280;13742;49.306;8.636;2023-05-16T05:22:57;100344.53;;;12.40;94.55
25944;BME280;13742;49.306;8.636;2023-05-16T05:23:57;100344.66;;;12.41;94.51
25944;BME280;13742;49.306;8.636;2023-05-16T05:24:57;100344.44;;;12.44;94.89
25944;BME280;13742;49.306;8.636;2023-05-16T05:25:57;100344.70;;;12.36;94.19
25944;BME280;13742;49.306;8.636;2023-05-16T05:26:57;100342.83;;;12.44;94.59
25944;BME280;13742;49.306;8.636;2023-05-16T05:27:57;100345.97;;;12.46;94.79
25944;BME280;13742;49.306;8.636;2023-05-16T05:28:57;100348.95;;;12.47;94.62
25944;BME280;13742;49.306;8.636;2023-05-16T05:29:57;100345.34;;;12.49;94.49